sensor_id;sensor_type;location;lat;lon;timestamp;pressure;altitude;pressure_sealevel;temperature;humidity
26865;BME280;40618;51.166;10.322;2022-09-01T00:01:36;97980.53;;;14.63;55.98
26865;BME280;40618;51.166;10.322;2022-09-01T00:04:06;97981.41;;;14.62;55.78
26865;BME280;40618;51.166;10.322;2022-09-01T00:06:34;97987.53;;;14.61;56.04
26865;BME280;40618;51.166;10.322;2022-09-01T00:09:06;97982.44;;;14.58;55.72
26865;BME280;40618;51.166;10.322;2022-09-01T00:11:35;97989.41;;;14.57;56.08
26865;BME280;40618;51.166;10.322;2022-09-01T00:14:04;97981.59;;;14.57;56.23
26865;BME280;40618;51.166;10.322;2022-09-01T00:16:31;97982.63;;;14.53;56.10
26865;BME280;40618;51.166;10.322;2022-09-01T00:18:58;97980.84;;;14.53;56.19
26865;BME280;40618;51.166;10.322;2022-09-01T00:21:29;97980.06;;;14.51;56.24
26865;BME280;40618;51.166;10.322;2022-09-01T00:23:56;97981.19;;;14.44;55.95
26865;BME280;40618;51.166;10.322;2022-09-01T00:26:23;97986.59;;;14.39;56.16
26865;BME280;40618;51.166;10.322;2022-09-01T00:28:49;97981.53;;;14.35;56.29
26865;BME280;40618;51.166;10.322;2022-09-01T00:31:16;97978.22;;;14.31;56.27
26865;BME280;40618;51.166;10.322;2022-09-01T00:33:47;97973.31;;;14.22;56.29
26865;BME280;40618;51.166;10.322;2022-09-01T00:36:14;97990.09;;;14.15;56.36
26865;BME280;40618;51.166;10.322;2022-09-01T00:38:41;97978.03;;;14.12;56.27
26865;BME280;40618;51.166;10.322;2022-09-01T00:41:07;97978.09;;;14.11;56.45
26865;BME280;40618;51.166;10.322;2022-09-01T00:43:43;97983.31;;;14.09;56.45
26865;BME280;40618;51.166;10.322;2022-09-01T00:49:53;97970.41;;;14.06;56.68
26865;BME280;40618;51.166;10.322;2022-09-01T00:52:09;97974.03;;;14.02;56.63
26865;BME280;40618;51.166;10.322;2022-09-01T00:54:41;97976.66;;;14.02;56.45
26865;BME280;40618;51.166;10.322;2022-09-01T00:57:10;97981.06;;;14.00;56.82
26865;BME280;40618;51.166;10.322;2022-09-01T01:00:34;97975.16;;;13.95;56.65
26865;BME280;40618;51.166;10.322;2022-09-01T01:02:54;97975.28;;;13.92;56.84
26865;BME280;40618;51.166;10.322;2022-09-01T01:05:26;97977.06;;;13.90;56.75
26865;BME280;40618;51.166;10.322;2022-09-01T01:08:02;97975.59;;;13.82;56.91
26865;BME280;40618;51.166;10.322;2022-09-01T01:10:31;97978.31;;;13.79;57.24
26865;BME280;40618;51.166;10.322;2022-09-01T01:13:00;97973.19;;;13.76;56.99
26865;BME280;40618;51.166;10.322;2022-09-01T01:15:27;97977.63;;;13.74;56.68
26865;BME280;40618;51.166;10.322;2022-09-01T01:17:54;97965.63;;;13.70;57.24
26865;BME280;40618;51.166;10.322;2022-09-01T01:20:23;97969.22;;;13.66;57.39
26865;BME280;40618;51.166;10.322;2022-09-01T01:26:27;97969.34;;;13.63;57.34
26865;BME280;40618;51.166;10.322;2022-09-01T01:28:53;97967.41;;;13.68;57.27
26865;BME280;40618;51.166;10.322;2022-09-01T01:31:20;97969.34;;;13.63;57.29
26865;BME280;40618;51.166;10.322;2022-09-01T01:33:50;97965.97;;;13.59;57.35
26865;BME280;40618;51.166;10.322;2022-09-01T01:36:20;97969.47;;;13.58;57.62
26865;BME280;40618;51.166;10.322;2022-09-01T01:38:51;97971.25;;;13.58;57.54
26865;BME280;40618;51.166;10.322;2022-09-01T01:41:18;97969.47;;;13.58;57.61
26865;BME280;40618;51.166;10.322;2022-09-01T01:43:45;97961.69;;;13.58;57.44
26865;BME280;40618;51.166;10.322;2022-09-01T01:46:12;97966.94;;;13.57;57.60
26865;BME280;40618;51.166;10.322;2022-09-01T01:48:40;97966.94;;;13.57;57.71
26865;BME280;40618;51.166;10.322;2022-09-01T01:51:08;97961.94;;;13.50;57.52
26865;BME280;40618;51.166;10.322;2022-09-01T01:53:36;97964.59;;;13.49;57.71
26865;BME280;40618;51.166;10.322;2022-09-01T01:56:02;97958.53;;;13.48;57.94
26865;BME280;40618;51.166;10.322;2022-09-01T01:58:30;97956.78;;;13.49;57.86
26865;BME280;40618;51.166;10.322;2022-09-01T02:00:57;97961.25;;;13.45;57.75
26865;BME280;40618;51.166;10.322;2022-09-01T02:03:31;97958.78;;;13.41;57.62
26865;BME280;40618;51.166;10.322;2022-09-01T02:06:05;97956.34;;;13.36;57.82
26865;BME280;40618;51.166;10.322;2022-09-01T02:08:37;97961.69;;;13.31;57.93
26865;BME280;40618;51.166;10.322;2022-09-01T02:11:06;97959.94;;;13.32;57.94
26865;BME280;40618;51.166;10.322;2022-09-01T02:13:32;97960.75;;;13.32;58.02
26865;BME280;40618;51.166;10.322;2022-09-01T02:16:05;97957.28;;;13.33;57.99
26865;BME280;40618;51.166;10.322;2022-09-01T02:18:39;97952.22;;;13.29;57.95
26865;BME280;40618;51.166;10.322;2022-09-01T02:21:13;97957.56;;;13.24;58.01
26865;BME280;40618;51.166;10.322;2022-09-01T02:23:46;97949.81;;;13.23;58.19
26865;BME280;40618;51.166;10.322;2022-09-01T02:26:14;97943.56;;;13.28;58.38
26865;BME280;40618;51.166;10.322;2022-09-01T02:28:44;97939.16;;;13.30;58.15
26865;BME280;40618;51.166;10.322;2022-09-01T02:31:13;97946.97;;;13.30;58.09
26865;BME280;40618;51.166;10.322;2022-09-01T02:33:39;97950.34;;;13.32;58.26
26865;BME280;40618;51.166;10.322;2022-09-01T02:36:12;97956.44;;;13.33;58.35
26865;BME280;40618;51.166;10.322;2022-09-01T02:38:40;97956.44;;;13.33;58.08
26865;BME280;40618;51.166;10.322;2022-09-01T02:41:09;97946.22;;;13.27;57.89
26865;BME280;40618;51.166;10.322;2022-09-01T02:43:36;97950.75;;;13.20;58.26
26865;BME280;40618;51.166;10.322;2022-09-01T02:46:02;97942.19;;;13.18;58.36
26865;BME280;40618;51.166;10.322;2022-09-01T02:48:36;97945.56;;;13.20;58.38
26865;BME280;40618;51.166;10.322;2022-09-01T02:51:07;97945.50;;;13.21;58.47
26865;BME280;40618;51.166;10.322;2022-09-01T02:53:36;97942.88;;;13.23;58.33
26865;BME280;40618;51.166;10.322;2022-09-01T02:56:05;97940.28;;;13.23;58.55
26865;BME280;40618;51.166;10.322;2022-09-01T02:58:36;97937.63;;;13.25;58.58
26865;BME280;40618;51.166;10.322;2022-09-01T03:01:22;97933.25;;;13.25;58.41
26865;BME280;40618;51.166;10.322;2022-09-01T03:03:53;97941.88;;;13.27;58.60
26865;BME280;40618;51.166;10.322;2022-09-01T03:06:21;97935.81;;;13.27;58.48
26865;BME280;40618;51.166;10.322;2022-09-01T03:08:53;97943.63;;;13.27;58.58
26865;BME280;40618;51.166;10.322;2022-09-01T03:11:21;97943.66;;;13.25;58.64
26865;BME280;40618;51.166;10.322;2022-09-01T03:13:49;97948.03;;;13.25;58.56
26865;BME280;40618;51.166;10.322;2022-09-01T03:16:15;97944.63;;;13.23;58.77
26865;BME280;40618;51.166;10.322;2022-09-01T03:18:40;97943.72;;;13.24;58.61
26865;BME280;40618;51.166;10.322;2022-09-01T03:21:08;97941.19;;;13.22;58.77
26865;BME280;40618;51.166;10.322;2022-09-01T03:23:40;97942.88;;;13.23;58.71
26865;BME280;40618;51.166;10.322;2022-09-01T03:26:06;97941.13;;;13.24;58.77
26865;BME280;40618;51.166;10.322;2022-09-01T03:28:32;97943.78;;;13.22;58.83
26865;BME280;40618;51.166;10.322;2022-09-01T03:30:58;97941.19;;;13.22;59.02
26865;BME280;40618;51.166;10.322;2022-09-01T03:33:26;97935.97;;;13.22;58.94
26865;BME280;40618;51.166;10.322;2022-09-01T03:35:53;97940.19;;;13.26;59.12
26865;BME280;40618;51.166;10.322;2022-09-01T03:38:19;97950.47;;;13.29;58.81
26865;BME280;40618;51.166;10.322;2022-09-01T03:40:58;97941.88;;;13.27;58.78
26865;BME280;40618;51.166;10.322;2022-09-01T03:43:27;97941.84;;;13.29;59.04
26865;BME280;40618;51.166;10.322;2022-09-01T03:45:55;97938.47;;;13.25;58.93
26865;BME280;40618;51.166;10.322;2022-09-01T03:48:25;97934.09;;;13.26;59.02
26865;BME280;40618;51.166;10.322;2022-09-01T03:50:57;97943.78;;;13.22;59.14
26865;BME280;40618;51.166;10.322;2022-09-01T03:53:31;97939.53;;;13.19;59.02
26865;BME280;40618;51.166;10.322;2022-09-01T03:56:02;97938.75;;;13.16;58.85
26865;BME280;40618;51.166;10.322;2022-09-01T03:58:29;97939.13;;;13.05;59.16
26865;BME280;40618;51.166;10.322;2022-09-01T04:00:57;97934.91;;;13.01;58.90
26865;BME280;40618;51.166;10.322;2022-09-01T04:03:30;97938.31;;;13.03;59.33
26865;BME280;40618;51.166;10.322;2022-09-01T04:06:00;97932.41;;;12.98;59.34
26865;BME280;40618;51.166;10.322;2022-09-01T04:08:27;97935.06;;;12.96;59.16
26865;BME280;40618;51.166;10.322;2022-09-01T04:10:58;97935.00;;;12.98;59.32
26865;BME280;40618;51.166;10.322;2022-09-01T04:13:33;97936.72;;;12.99;59.39
26865;BME280;40618;51.166;10.322;2022-09-01T04:16:00;97939.38;;;12.97;59.29
26865;BME280;40618;51.166;10.322;2022-09-01T04:18:26;97936.84;;;12.94;59.44
26865;BME280;40618;51.166;10.322;2022-09-01T04:20:55;97934.41;;;12.90;59.49
26865;BME280;40618;51.166;10.322;2022-09-01T04:23:27;97939.63;;;12.90;59.47
26865;BME280;40618;51.166;10.322;2022-09-01T04:25:57;97936.22;;;12.88;59.46
26865;BME280;40618;51.166;10.322;2022-09-01T04:28:31;97944.91;;;12.86;59.49
26865;BME280;40618;51.166;10.322;2022-09-01T04:30:59;97938.91;;;12.84;59.68
26865;BME280;40618;51.166;10.322;2022-09-01T04:33:32;97942.31;;;12.86;59.83
26865;BME280;40618;51.166;10.322;2022-09-01T04:36:19;97942.22;;;12.90;59.65
26865;BME280;40618;51.166;10.322;2022-09-01T04:39:00;97942.25;;;12.88;59.84
26865;BME280;40618;51.166;10.322;2022-09-01T04:41:35;97940.59;;;12.85;60.01
26865;BME280;40618;51.166;10.322;2022-09-01T04:44:04;97937.91;;;12.89;59.76
26865;BME280;40618;51.166;10.322;2022-09-01T04:46:34;97938.00;;;12.85;59.69
26865;BME280;40618;51.166;10.322;2022-09-01T04:49:04;97945.03;;;12.82;59.70
26865;BME280;40618;51.166;10.322;2022-09-01T04:51:37;97944.31;;;12.78;59.95
26865;BME280;40618;51.166;10.322;2022-09-01T04:54:08;97946.91;;;12.78;60.07
26865;BME280;40618;51.166;10.322;2022-09-01T04:56:37;97944.38;;;12.75;60.07
26865;BME280;40618;51.166;10.322;2022-09-01T04:59:03;97947.84;;;12.76;59.94
26865;BME280;40618;51.166;10.322;2022-09-01T05:01:31;97944.38;;;12.75;60.19
26865;BME280;40618;51.166;10.322;2022-09-01T05:04:18;97940.06;;;12.76;60.19
26865;BME280;40618;51.166;10.322;2022-09-01T05:06:56;97938.44;;;12.72;60.20
26865;BME280;40618;51.166;10.322;2022-09-01T05:09:30;97939.56;;;12.63;60.27
26865;BME280;40618;51.166;10.322;2022-09-01T05:12:00;97944.81;;;12.61;60.39
26865;BME280;40618;51.166;10.322;2022-09-01T05:14:37;97943.19;;;12.57;60.37
26865;BME280;40618;51.166;10.322;2022-09-01T05:17:07;97947.66;;;12.53;60.31
26865;BME280;40618;51.166;10.322;2022-09-01T05:19:42;97945.06;;;12.52;60.53
26865;BME280;40618;51.166;10.322;2022-09-01T05:22:12;97945.13;;;12.50;60.40
26865;BME280;40618;51.166;10.322;2022-09-01T05:24:39;97950.25;;;12.53;60.94
26865;BME280;40618;51.166;10.322;2022-09-01T05:27:06;97948.44;;;12.56;60.49
26865;BME280;40618;51.166;10.322;2022-09-01T05:29:32;97949.34;;;12.55;60.71
26865;BME280;40618;51.166;10.322;2022-09-01T05:32:03;97945.06;;;12.52;60.86
26865;BME280;40618;51.166;10.322;2022-09-01T05:34:34;97945.94;;;12.52;60.88
26865;BME280;40618;51.166;10.322;2022-09-01T05:37:04;97946.66;;;12.58;61.08
26865;BME280;40618;51.166;10.322;2022-09-01T05:39:32;97947.66;;;12.53;61.04
26865;BME280;40618;51.166;10.322;2022-09-01T05:41:59;97946.72;;;12.56;61.13
26865;BME280;40618;51.166;10.322;2022-09-01T05:44:25;97955.31;;;12.58;61.08
26865;BME280;40618;51.166;10.322;2022-09-01T05:46:51;97950.94;;;12.59;60.84
26865;BME280;40618;51.166;10.322;2022-09-01T05:49:17;97957.91;;;12.58;61.13
26865;BME280;40618;51.166;10.322;2022-09-01T05:51:46;97954.34;;;12.61;61.39
26865;BME280;40618;51.166;10.322;2022-09-01T05:54:15;97951.72;;;12.62;61.25
26865;BME280;40618;51.166;10.322;2022-09-01T05:56:43;97957.63;;;12.67;61.14
26865;BME280;40618;51.166;10.322;2022-09-01T05:59:11;97954.09;;;12.70;61.32
26865;BME280;40618;51.166;10.322;2022-09-01T06:01:39;97960.22;;;12.67;61.39
26865;BME280;40618;51.166;10.322;2022-09-01T06:04:07;97963.66;;;12.68;61.36
26865;BME280;40618;51.166;10.322;2022-09-01T06:06:37;97953.28;;;12.68;61.14
26865;BME280;40618;51.166;10.322;2022-09-01T06:09:06;97962.66;;;12.72;61.35
26865;BME280;40618;51.166;10.322;2022-09-01T06:11:34;97954.78;;;12.75;61.67
26865;BME280;40618;51.166;10.322;2022-09-01T06:14:01;97954.78;;;12.75;61.51
26865;BME280;40618;51.166;10.322;2022-09-01T06:16:28;97952.16;;;12.77;61.57
26865;BME280;40618;51.166;10.322;2022-09-01T06:18:55;97959.03;;;12.78;61.54
26865;BME280;40618;51.166;10.322;2022-09-01T06:21:22;97956.38;;;12.79;61.38
26865;BME280;40618;51.166;10.322;2022-09-01T06:23:49;97957.19;;;12.81;61.60
26865;BME280;40618;51.166;10.322;2022-09-01T06:28:45;97957.09;;;12.84;61.53
26865;BME280;40618;51.166;10.322;2022-09-01T06:31:12;97968.34;;;12.85;61.68
26865;BME280;40618;51.166;10.322;2022-09-01T06:33:39;97966.59;;;12.85;61.48
26865;BME280;40618;51.166;10.322;2022-09-01T06:36:05;97970.03;;;12.86;61.71
26865;BME280;40618;51.166;10.322;2022-09-01T06:38:33;97966.69;;;12.82;61.68
26865;BME280;40618;51.166;10.322;2022-09-01T06:41:05;97969.19;;;12.85;61.87
26865;BME280;40618;51.166;10.322;2022-09-01T06:43:40;97964.81;;;12.88;61.80
26865;BME280;40618;51.166;10.322;2022-09-01T06:46:07;97965.72;;;12.86;61.60
26865;BME280;40618;51.166;10.322;2022-09-01T06:48:35;97963.09;;;12.86;61.65
26865;BME280;40618;51.166;10.322;2022-09-01T06:51:06;97969.09;;;12.89;61.99
26865;BME280;40618;51.166;10.322;2022-09-01T06:53:34;97973.34;;;12.91;61.95
26865;BME280;40618;51.166;10.322;2022-09-01T06:56:00;97966.31;;;12.95;61.94
26865;BME280;40618;51.166;10.322;2022-09-01T06:58:27;97972.25;;;12.98;62.07
26865;BME280;40618;51.166;10.322;2022-09-01T07:00:54;97969.53;;;13.03;62.08
26865;BME280;40618;51.166;10.322;2022-09-01T07:03:19;97973.72;;;13.07;62.06
26865;BME280;40618;51.166;10.322;2022-09-01T07:05:48;97980.47;;;13.13;62.05
26865;BME280;40618;51.166;10.322;2022-09-01T07:08:15;97982.72;;;13.24;62.33
26865;BME280;40618;51.166;10.322;2022-09-01T07:10:48;97984.13;;;13.35;62.19
26865;BME280;40618;51.166;10.322;2022-09-01T07:13:20;97985.25;;;13.53;62.13
26865;BME280;40618;51.166;10.322;2022-09-01T07:15:52;97987.22;;;13.72;62.31
26865;BME280;40618;51.166;10.322;2022-09-01T07:18:21;97985.00;;;13.86;62.04
26865;BME280;40618;51.166;10.322;2022-09-01T07:20:50;97985.25;;;14.04;62.18
26865;BME280;40618;51.166;10.322;2022-09-01T07:23:17;97983.75;;;14.22;62.21
26865;BME280;40618;51.166;10.322;2022-09-01T07:25:48;97980.63;;;14.36;61.87
26865;BME280;40618;51.166;10.322;2022-09-01T07:28:16;97981.88;;;14.49;61.91
26865;BME280;40618;51.166;10.322;2022-09-01T07:30:47;97979.63;;;14.64;61.60
26865;BME280;40618;51.166;10.322;2022-09-01T07:33:16;97980.13;;;14.74;61.43
26865;BME280;40618;51.166;10.322;2022-09-01T07:35:46;97976.13;;;14.87;61.48
26865;BME280;40618;51.166;10.322;2022-09-01T07:38:12;97986.81;;;15.03;61.57
26865;BME280;40618;51.166;10.322;2022-09-01T07:40:41;97979.47;;;15.13;60.93
26865;BME280;40618;51.166;10.322;2022-09-01T07:43:14;97985.34;;;15.18;61.25
26865;BME280;40618;51.166;10.322;2022-09-01T07:45:47;97989.41;;;15.25;61.21
26865;BME280;40618;51.166;10.322;2022-09-01T07:48:18;97988.97;;;15.36;60.95
26865;BME280;40618;51.166;10.322;2022-09-01T07:50:50;97983.31;;;15.47;60.71
26865;BME280;40618;51.166;10.322;2022-09-01T07:53:20;97992.53;;;15.55;60.72
26865;BME280;40618;51.166;10.322;2022-09-01T07:55:57;97984.88;;;15.71;60.62
26865;BME280;40618;51.166;10.322;2022-09-01T07:58:27;97989.63;;;15.84;60.42
26865;BME280;40618;51.166;10.322;2022-09-01T08:00:58;97996.00;;;15.97;60.24
26865;BME280;40618;51.166;10.322;2022-09-01T08:03:27;97984.66;;;15.98;60.55
26865;BME280;40618;51.166;10.322;2022-09-01T08:05:54;97991.81;;;16.14;60.47
26865;BME280;40618;51.166;10.322;2022-09-01T08:08:25;97987.97;;;16.22;60.03
26865;BME280;40618;51.166;10.322;2022-09-01T08:10:51;97990.13;;;16.32;60.27
26865;BME280;40618;51.166;10.322;2022-09-01T08:13:17;97995.78;;;16.41;59.94
26865;BME280;40618;51.166;10.322;2022-09-01T08:15:43;97995.69;;;16.45;59.58
26865;BME280;40618;51.166;10.322;2022-09-01T08:18:10;97996.44;;;16.47;59.58
26865;BME280;40618;51.166;10.322;2022-09-01T08:20:38;97997.94;;;16.52;59.37
26865;BME280;40618;51.166;10.322;2022-09-01T08:23:10;97997.50;;;16.62;59.57
26865;BME280;40618;51.166;10.322;2022-09-01T08:25:43;97995.03;;;16.78;59.76
26865;BME280;40618;51.166;10.322;2022-09-01T08:28:11;98000.56;;;16.90;59.38
26865;BME280;40618;51.166;10.322;2022-09-01T08:30:39;97997.53;;;17.00;59.26
26865;BME280;40618;51.166;10.322;2022-09-01T08:33:07;97996.22;;;17.08;58.95
26865;BME280;40618;51.166;10.322;2022-09-01T08:35:45;98004.63;;;17.15;59.16
26865;BME280;40618;51.166;10.322;2022-09-01T08:38:12;98001.56;;;17.24;58.93
26865;BME280;40618;51.166;10.322;2022-09-01T08:40:40;98001.28;;;17.31;59.08
26865;BME280;40618;51.166;10.322;2022-09-01T08:48:52;98005.38;;;17.89;58.57
26865;BME280;40618;51.166;10.322;2022-09-01T08:54:09;97999.75;;;18.14;57.63
26865;BME280;40618;51.166;10.322;2022-09-01T08:57:08;97995.56;;;18.27;57.85
26865;BME280;40618;51.166;10.322;2022-09-01T08:59:40;98004.31;;;18.44;57.56
26865;BME280;40618;51.166;10.322;2022-09-01T09:02:34;98004.75;;;18.52;57.45
26865;BME280;40618;51.166;10.322;2022-09-01T09:11:06;98002.78;;;18.89;57.04
26865;BME280;40618;51.166;10.322;2022-09-01T09:16:51;98002.28;;;18.99;56.79
26865;BME280;40618;51.166;10.322;2022-09-01T09:19:27;97998.69;;;19.00;56.42
26865;BME280;40618;51.166;10.322;2022-09-01T09:21:58;98006.75;;;19.13;56.73
26865;BME280;40618;51.166;10.322;2022-09-01T09:24:32;98005.53;;;19.34;56.44
26865;BME280;40618;51.166;10.322;2022-09-01T09:27:38;98006.25;;;19.52;55.94
26865;BME280;40618;51.166;10.322;2022-09-01T09:30:27;98004.03;;;19.60;55.85
26865;BME280;40618;51.166;10.322;2022-09-01T09:33:02;98004.25;;;19.72;55.73
26865;BME280;40618;51.166;10.322;2022-09-01T09:35:34;97997.78;;;19.77;55.45
26865;BME280;40618;51.166;10.322;2022-09-01T09:41:03;97994.84;;;19.98;55.04
26865;BME280;40618;51.166;10.322;2022-09-01T09:43:37;97990.25;;;20.02;55.14
26865;BME280;40618;51.166;10.322;2022-09-01T09:46:33;97984.25;;;20.14;55.08
26865;BME280;40618;51.166;10.322;2022-09-01T09:49:21;97987.53;;;20.32;54.53
26865;BME280;40618;51.166;10.322;2022-09-01T09:51:55;97979.84;;;20.29;54.20
26865;BME280;40618;51.166;10.322;2022-09-01T09:54:39;97991.09;;;20.31;54.49
26865;BME280;40618;51.166;10.322;2022-09-01T09:57:21;97988.00;;;20.39;54.21
26865;BME280;40618;51.166;10.322;2022-09-01T10:00:04;97990.19;;;20.46;54.25
26865;BME280;40618;51.166;10.322;2022-09-01T10:02:43;97997.59;;;20.69;54.22
26865;BME280;40618;51.166;10.322;2022-09-01T10:05:43;97978.41;;;20.81;53.74
26865;BME280;40618;51.166;10.322;2022-09-01T10:08:36;97974.25;;;20.91;53.42
26865;BME280;40618;51.166;10.322;2022-09-01T10:11:09;97975.22;;;20.76;53.42
26865;BME280;40618;51.166;10.322;2022-09-01T10:13:48;97971.44;;;20.80;53.20
26865;BME280;40618;51.166;10.322;2022-09-01T10:16:27;97966.03;;;20.69;53.10
26865;BME280;40618;51.166;10.322;2022-09-01T10:18:58;97977.00;;;20.61;53.08
26865;BME280;40618;51.166;10.322;2022-09-01T10:21:34;97975.22;;;20.61;52.97
26865;BME280;40618;51.166;10.322;2022-09-01T10:24:18;97984.50;;;20.53;52.82
26865;BME280;40618;51.166;10.322;2022-09-01T10:26:49;97980.78;;;20.42;52.83
26865;BME280;40618;51.166;10.322;2022-09-01T10:29:28;97974.00;;;20.53;52.76
26865;BME280;40618;51.166;10.322;2022-09-01T10:31:59;97966.84;;;20.69;52.83
26865;BME280;40618;51.166;10.322;2022-09-01T10:34:32;97957.59;;;20.91;52.35
26865;BME280;40618;51.166;10.322;2022-09-01T10:37:00;97958.53;;;20.90;52.12
26865;BME280;40618;51.166;10.322;2022-09-01T10:39:26;97962.13;;;20.89;51.83
26865;BME280;40618;51.166;10.322;2022-09-01T10:41:56;97966.78;;;20.98;51.58
26865;BME280;40618;51.166;10.322;2022-09-01T10:44:38;97957.41;;;20.94;51.88
26865;BME280;40618;51.166;10.322;2022-09-01T10:47:30;97961.94;;;21.19;51.52
26865;BME280;40618;51.166;10.322;2022-09-01T10:50:29;97948.78;;;21.32;50.99
26865;BME280;40618;51.166;10.322;2022-09-01T10:53:05;97957.00;;;21.27;51.15
26865;BME280;40618;51.166;10.322;2022-09-01T10:55:43;97948.44;;;21.24;50.88
26865;BME280;40618;51.166;10.322;2022-09-01T10:58:24;97941.00;;;21.30;51.08
26865;BME280;40618;51.166;10.322;2022-09-01T11:01:03;97944.66;;;21.28;50.63
26865;BME280;40618;51.166;10.322;2022-09-01T11:03:47;97940.03;;;21.32;50.78
26865;BME280;40618;51.166;10.322;2022-09-01T11:06:32;97949.09;;;21.27;50.48
26865;BME280;40618;51.166;10.322;2022-09-01T11:13:06;97942.78;;;21.30;50.33
26865;BME280;40618;51.166;10.322;2022-09-01T11:15:39;97949.31;;;21.37;50.02
26865;BME280;40618;51.166;10.322;2022-09-01T11:18:28;97948.69;;;21.34;49.73
26865;BME280;40618;51.166;10.322;2022-09-01T11:21:16;97943.22;;;21.37;49.50
26865;BME280;40618;51.166;10.322;2022-09-01T11:23:49;97953.47;;;21.14;49.71
26865;BME280;40618;51.166;10.322;2022-09-01T11:26:46;97953.91;;;21.21;49.58
26865;BME280;40618;51.166;10.322;2022-09-01T11:32:24;97944.84;;;21.12;49.26
26865;BME280;40618;51.166;10.322;2022-09-01T11:34:56;97950.63;;;20.90;48.94
26865;BME280;40618;51.166;10.322;2022-09-01T11:37:23;97949.66;;;20.63;49.14
26865;BME280;40618;51.166;10.322;2022-09-01T11:39:54;97946.66;;;20.55;49.37
26865;BME280;40618;51.166;10.322;2022-09-01T11:42:27;97944.44;;;20.49;49.15
26865;BME280;40618;51.166;10.322;2022-09-01T11:45:16;97942.53;;;20.51;49.17
26865;BME280;40618;51.166;10.322;2022-09-01T11:47:54;97938.88;;;20.54;49.14
26865;BME280;40618;51.166;10.322;2022-09-01T11:50:28;97942.31;;;20.54;48.88
26865;BME280;40618;51.166;10.322;2022-09-01T11:55:42;97933.84;;;20.63;48.50
26865;BME280;40618;51.166;10.322;2022-09-01T11:58:35;97940.06;;;20.77;48.50
26865;BME280;40618;51.166;10.322;2022-09-01T12:03:57;97936.28;;;21.08;48.21
26865;BME280;40618;51.166;10.322;2022-09-01T12:06:27;97947.38;;;21.13;47.92
26865;BME280;40618;51.166;10.322;2022-09-01T12:08:58;97938.63;;;21.13;47.68
26865;BME280;40618;51.166;10.322;2022-09-01T12:11:34;97939.47;;;21.13;47.76
26865;BME280;40618;51.166;10.322;2022-09-01T12:14:03;97936.09;;;21.11;47.84
26865;BME280;40618;51.166;10.322;2022-09-01T12:16:33;97926.81;;;21.06;47.51
26865;BME280;40618;51.166;10.322;2022-09-01T12:19:03;97923.25;;;21.07;47.65
26865;BME280;40618;51.166;10.322;2022-09-01T12:21:36;97931.41;;;21.02;47.60
26865;BME280;40618;51.166;10.322;2022-09-01T12:24:21;97931.34;;;21.04;47.41
26865;BME280;40618;51.166;10.322;2022-09-01T12:26:51;97933.09;;;21.03;47.40
26865;BME280;40618;51.166;10.322;2022-09-01T12:29:20;97928.59;;;21.05;47.34
26865;BME280;40618;51.166;10.322;2022-09-01T12:31:48;97931.13;;;21.07;47.08
26865;BME280;40618;51.166;10.322;2022-09-01T12:42:27;97914.13;;;20.98;46.67
26865;BME280;40618;51.166;10.322;2022-09-01T12:45:03;97917.84;;;20.95;46.86
26865;BME280;40618;51.166;10.322;2022-09-01T12:52:33;97914.84;;;20.87;46.64
26865;BME280;40618;51.166;10.322;2022-09-01T12:57:33;97914.06;;;21.00;46.78
26865;BME280;40618;51.166;10.322;2022-09-01T13:02:39;97897.19;;;21.02;46.39
26865;BME280;40618;51.166;10.322;2022-09-01T13:07:47;97908.72;;;21.14;46.31
26865;BME280;40618;51.166;10.322;2022-09-01T13:10:14;97895.44;;;21.16;46.12
26865;BME280;40618;51.166;10.322;2022-09-01T13:12:41;97892.81;;;21.16;46.02
26865;BME280;40618;51.166;10.322;2022-09-01T13:15:09;97891.47;;;21.23;46.15
26865;BME280;40618;51.166;10.322;2022-09-01T13:17:35;97893.91;;;21.39;45.88
26865;BME280;40618;51.166;10.322;2022-09-01T13:20:04;97896.88;;;21.47;45.73
26865;BME280;40618;51.166;10.322;2022-09-01T13:22:30;97894.34;;;21.45;45.44
26865;BME280;40618;51.166;10.322;2022-09-01T13:24:56;97890.97;;;21.43;45.39
26865;BME280;40618;51.166;10.322;2022-09-01T13:27:21;97886.53;;;21.44;45.34
26865;BME280;40618;51.166;10.322;2022-09-01T13:29:48;97882.53;;;21.38;45.37
26865;BME280;40618;51.166;10.322;2022-09-01T13:32:16;97890.66;;;21.35;45.00
26865;BME280;40618;51.166;10.322;2022-09-01T13:34:46;97889.47;;;21.26;44.94
26865;BME280;40618;51.166;10.322;2022-09-01T13:37:12;97882.81;;;21.21;44.91
26865;BME280;40618;51.166;10.322;2022-09-01T13:39:38;97882.09;;;21.19;45.11
26865;BME280;40618;51.166;10.322;2022-09-01T13:42:04;97889.56;;;21.12;44.90
26865;BME280;40618;51.166;10.322;2022-09-01T13:44:30;97872.28;;;21.08;45.03
26865;BME280;40618;51.166;10.322;2022-09-01T13:46:55;97874.97;;;21.06;44.90
26865;BME280;40618;51.166;10.322;2022-09-01T13:49:22;97875.41;;;21.13;45.06
26865;BME280;40618;51.166;10.322;2022-09-01T13:51:51;97873.22;;;21.20;44.94
26865;BME280;40618;51.166;10.322;2022-09-01T13:54:18;97875.34;;;21.27;44.71
26865;BME280;40618;51.166;10.322;2022-09-01T13:56:45;97870.19;;;21.26;44.64
26865;BME280;40618;51.166;10.322;2022-09-01T13:59:10;97869.97;;;21.29;44.52
26865;BME280;40618;51.166;10.322;2022-09-01T14:01:36;97864.59;;;21.30;44.32
26865;BME280;40618;51.166;10.322;2022-09-01T14:04:02;97863.44;;;21.35;44.19
26865;BME280;40618;51.166;10.322;2022-09-01T14:06:30;97857.97;;;21.38;44.09
26865;BME280;40618;51.166;10.322;2022-09-01T14:08:56;97858.31;;;21.46;44.27
26865;BME280;40618;51.166;10.322;2022-09-01T14:11:23;97861.13;;;21.43;43.74
26865;BME280;40618;51.166;10.322;2022-09-01T14:13:51;97866.63;;;21.40;44.23
26865;BME280;40618;51.166;10.322;2022-09-01T14:16:17;97858.50;;;21.43;43.96